Time;durP1;ratioP1;P1;durP2;ratioP2;P2;SDS_P1;SDS_P2;PMS_P1;PMS_P2;Temp;Humidity;BMP_temperature;BMP_pressure;BME280_temperature;BME280_humidity;BME280_pressure;Samples;Min_cycle;Max_cycle;Signal;HPM_P1;HPM_P2
2021/06/26 00:01:26;;;;;;;43.35;30.27;;;16.50;99.90;;;;;;5017302;28;20049;-87
2021/06/26 00:03:53;;;;;;;47.20;34.03;;;16.40;99.90;;;;;;5017287;28;20038;-87
2021/06/26 00:06:20;;;;;;;49.13;33.78;;;16.50;99.90;;;;;;5016738;28;20030;-87
2021/06/26 00:08:47;;;;;;;41.45;31.17;;;16.50;99.90;;;;;;5016833;28;20061;-87
2021/06/26 00:11:13;;;;;;;46.80;34.80;;;16.40;99.90;;;;;;5016511;28;20037;-87
2021/06/26 00:13:40;;;;;;;52.95;34.63;;;16.40;99.90;;;;;;5017028;28;20263;-88
2021/06/26 00:16:07;;;;;;;43.40;33.10;;;16.40;99.90;;;;;;5001564;28;20145;-88
2021/06/26 00:18:34;;;;;;;44.38;34.22;;;16.50;99.90;;;;;;5016807;28;20034;-87
2021/06/26 00:21:01;;;;;;;51.05;35.38;;;16.50;99.90;;;;;;5016903;28;20046;-88
2021/06/26 00:23:28;;;;;;;49.38;34.92;;;16.50;99.90;;;;;;5016521;28;20045;-87
2021/06/26 00:25:55;;;;;;;44.58;32.88;;;16.50;99.90;;;;;;5016771;28;20093;-87
2021/06/26 00:28:22;;;;;;;47.92;34.10;;;16.50;99.90;;;;;;5032297;28;20112;-87
2021/06/26 00:30:49;;;;;;;44.53;31.70;;;16.50;99.90;;;;;;5016098;28;20034;-87
2021/06/26 00:33:15;;;;;;;46.97;34.38;;;16.50;99.90;;;;;;5016019;28;20044;-87
2021/06/26 00:35:42;;;;;;;46.63;34.13;;;16.50;99.90;;;;;;5016286;28;20073;-87
2021/06/26 00:38:09;;;;;;;49.58;33.70;;;16.50;99.90;;;;;;5016393;28;20121;-87
2021/06/26 00:40:36;;;;;;;47.83;34.60;;;16.50;99.90;;;;;;5015846;28;20046;-86
2021/06/26 00:43:03;;;;;;;46.22;33.83;;;16.60;99.90;;;;;;5016024;28;20092;-86
2021/06/26 00:45:30;;;;;;;45.40;33.38;;;16.60;99.90;;;;;;5031936;28;20112;-86
2021/06/26 00:47:56;;;;;;;50.97;34.58;;;16.50;99.90;;;;;;5015986;28;20144;-87
2021/06/26 00:50:29;;;;;;;48.95;32.67;;;16.60;99.90;;;;;;5031913;28;20560;-87
2021/06/26 00:52:56;;;;;;;44.47;32.90;;;16.50;99.90;;;;;;5032032;28;20045;-87
2021/06/26 00:55:23;;;;;;;43.60;33.10;;;16.50;99.90;;;;;;5031636;28;20394;-87
2021/06/26 00:58:00;;;;;;;45.30;33.20;;;16.50;99.90;;;;;;5015638;28;20042;-86
2021/06/26 01:00:32;;;;;;;44.88;32.55;;;16.50;99.90;;;;;;5032894;28;20042;-86
2021/06/26 01:03:00;;;;;;;47.85;34.08;;;16.50;99.90;;;;;;5031860;28;20065;-86
2021/06/26 01:05:27;;;;;;;46.35;33.63;;;16.50;99.90;;;;;;5031352;28;20042;-87
2021/06/26 01:07:54;;;;;;;47.55;33.22;;;16.50;99.90;;;;;;5032541;28;20479;-87
2021/06/26 01:10:21;;;;;;;46.75;34.25;;;16.50;99.90;;;;;;5015908;28;20044;-86
2021/06/26 01:12:49;;;;;;;48.67;33.65;;;16.50;99.90;;;;;;5049709;28;20046;-86
2021/06/26 01:15:17;;;;;;;54.55;34.63;;;16.50;99.90;;;;;;5015776;28;20042;-87
2021/06/26 01:17:44;;;;;;;46.17;32.60;;;16.50;99.90;;;;;;5031595;28;20478;-86
2021/06/26 01:20:12;;;;;;;43.17;31.75;;;16.50;99.90;;;;;;5016187;28;20041;-87
2021/06/26 01:22:43;;;;;;;46.15;32.78;;;16.50;99.90;;;;;;5015279;28;20483;-86
2021/06/26 01:25:16;;;;;;;47.95;32.97;;;16.50;99.90;;;;;;5031820;28;20050;-86
2021/06/26 01:27:43;;;;;;;47.83;32.83;;;16.50;99.90;;;;;;5031144;28;20095;-86
2021/06/26 01:30:12;;;;;;;45.85;33.05;;;16.50;99.90;;;;;;5031708;28;20393;-87
2021/06/26 01:32:39;;;;;;;46.65;33.28;;;16.50;99.90;;;;;;5015315;28;20030;-86
2021/06/26 01:35:08;;;;;;;42.92;32.20;;;16.50;99.90;;;;;;5015322;28;20041;-86
2021/06/26 01:37:39;;;;;;;46.88;32.05;;;16.50;99.90;;;;;;5015414;28;20044;-86
2021/06/26 01:40:08;;;;;;;43.08;31.67;;;16.50;99.90;;;;;;5048466;28;20439;-86
2021/06/26 01:42:35;;;;;;;46.30;32.90;;;16.50;99.90;;;;;;5014129;28;20145;-86
2021/06/26 01:45:02;;;;;;;42.95;32.03;;;16.50;99.90;;;;;;5015204;28;20042;-86
2021/06/26 01:47:29;;;;;;;54.67;34.53;;;16.60;99.90;;;;;;5030816;28;20483;-86
2021/06/26 01:49:56;;;;;;;46.45;33.17;;;16.60;99.90;;;;;;4999018;28;20086;-86
2021/06/26 01:52:23;;;;;;;42.30;32.70;;;16.60;99.90;;;;;;5014790;28;20057;-86
2021/06/26 01:54:49;;;;;;;49.65;33.45;;;16.60;99.90;;;;;;5015067;28;20044;-86
2021/06/26 01:57:16;;;;;;;44.15;33.17;;;16.60;99.90;;;;;;5031210;28;20398;-87
2021/06/26 01:59:46;;;;;;;41.92;30.80;;;16.60;99.90;;;;;;5015231;28;20042;-86
2021/06/26 02:02:12;;;;;;;45.35;34.20;;;16.60;99.90;;;;;;5014714;28;20042;-86
2021/06/26 02:04:40;;;;;;;46.47;33.20;;;16.60;99.90;;;;;;5014269;28;20034;-86
2021/06/26 02:07:07;;;;;;;44.88;33.08;;;16.60;99.90;;;;;;5014858;28;20038;-86
2021/06/26 02:09:33;;;;;;;49.95;35.28;;;16.60;99.90;;;;;;4998455;28;20136;-86
2021/06/26 02:12:00;;;;;;;53.85;34.85;;;16.50;99.90;;;;;;5014659;28;20049;-86
2021/06/26 02:14:27;;;;;;;46.88;34.95;;;16.60;99.90;;;;;;5014323;28;20042;-86
2021/06/26 02:16:54;;;;;;;46.92;34.58;;;16.50;99.90;;;;;;5030927;28;20038;-86
2021/06/26 02:19:20;;;;;;;47.75;34.65;;;16.60;99.90;;;;;;5014785;28;20148;-87
2021/06/26 02:21:48;;;;;;;48.50;34.97;;;16.60;99.90;;;;;;5014207;28;20057;-86
2021/06/26 02:24:15;;;;;;;46.05;34.40;;;16.60;99.90;;;;;;5014800;28;20069;-86
2021/06/26 02:26:42;;;;;;;47.20;35.50;;;16.60;99.90;;;;;;5014408;28;20052;-87
2021/06/26 02:29:09;;;;;;;49.03;34.75;;;16.60;99.90;;;;;;5014631;28;20116;-86
2021/06/26 02:31:36;;;;;;;49.03;35.60;;;16.50;99.90;;;;;;4998177;28;20045;-86
2021/06/26 02:34:03;;;;;;;51.40;34.25;;;16.60;99.90;;;;;;5014475;28;20065;-86
2021/06/26 02:36:30;;;;;;;49.35;32.88;;;16.50;99.90;;;;;;5030289;28;20050;-86
2021/06/26 02:38:56;;;;;;;51.03;34.90;;;16.60;99.90;;;;;;5014311;28;20124;-86
2021/06/26 02:41:23;;;;;;;52.97;35.92;;;16.50;99.90;;;;;;5014125;28;20401;-86
2021/06/26 02:43:53;;;;;;;50.33;36.15;;;16.50;99.90;;;;;;5014284;28;20034;-86
2021/06/26 02:46:19;;;;;;;52.65;35.80;;;16.50;99.90;;;;;;5014589;28;20034;-86
2021/06/26 02:48:47;;;;;;;46.00;34.15;;;16.50;99.90;;;;;;5013904;28;20049;-86
2021/06/26 02:51:14;;;;;;;49.45;35.15;;;16.50;99.90;;;;;;5014426;28;20045;-86
2021/06/26 02:53:41;;;;;;;48.05;35.53;;;16.50;99.90;;;;;;5048595;28;20046;-87
2021/06/26 02:56:08;;;;;;;50.92;37.30;;;16.50;99.90;;;;;;5017989;28;20042;-86
2021/06/26 02:58:35;;;;;;;47.83;34.88;;;16.50;99.90;;;;;;5017859;28;20040;-87
2021/06/26 03:01:02;;;;;;;48.63;32.50;;;16.50;99.90;;;;;;5018250;28;20160;-87
2021/06/26 03:03:29;;;;;;;50.30;36.20;;;16.50;99.90;;;;;;5051798;28;20042;-88
2021/06/26 03:05:56;;;;;;;48.15;34.63;;;16.50;99.90;;;;;;5017564;28;20033;-86
2021/06/26 03:08:23;;;;;;;50.75;35.08;;;16.50;99.90;;;;;;5034214;28;20040;-87
2021/06/26 03:10:50;;;;;;;46.08;34.00;;;16.50;99.90;;;;;;5017695;28;20475;-86
2021/06/26 03:13:17;;;;;;;47.72;34.60;;;16.50;99.90;;;;;;5017265;28;20034;-87
2021/06/26 03:15:45;;;;;;;48.80;35.28;;;16.50;99.90;;;;;;5050616;28;20038;-86
2021/06/26 03:18:12;;;;;;;52.28;36.28;;;16.50;99.90;;;;;;5017881;28;20041;-86
2021/06/26 03:20:39;;;;;;;46.28;34.22;;;16.50;99.90;;;;;;5017787;28;20398;-86
2021/06/26 03:23:07;;;;;;;46.88;33.80;;;16.40;99.90;;;;;;5017658;28;20099;-86
2021/06/26 03:25:34;;;;;;;53.10;37.38;;;16.40;99.90;;;;;;5018090;28;20486;-86
2021/06/26 03:28:01;;;;;;;45.63;34.67;;;16.50;99.90;;;;;;5018568;28;20422;-86
2021/06/26 03:30:28;;;;;;;48.95;35.78;;;16.50;99.90;;;;;;5018005;28;20060;-86
2021/06/26 03:32:55;;;;;;;48.83;35.15;;;16.50;99.90;;;;;;5001153;28;20054;-86
2021/06/26 03:35:22;;;;;;;52.25;36.53;;;16.50;99.90;;;;;;5017423;28;20054;-86
2021/06/26 03:37:49;;;;;;;49.35;34.75;;;16.50;99.90;;;;;;5033128;28;20398;-86
2021/06/26 03:40:16;;;;;;;48.28;35.20;;;16.50;99.90;;;;;;5017390;28;20088;-86
2021/06/26 03:42:43;;;;;;;49.08;33.50;;;16.50;99.90;;;;;;5016921;28;20474;-86
2021/06/26 03:45:10;;;;;;;53.22;37.38;;;16.50;99.90;;;;;;5017618;28;20398;-87
2021/06/26 03:47:37;;;;;;;53.50;36.78;;;16.50;99.90;;;;;;5017013;28;20121;-86
2021/06/26 03:50:06;;;;;;;56.88;37.95;;;16.50;99.90;;;;;;5017419;28;20061;-86
2021/06/26 03:52:32;;;;;;;49.97;37.53;;;16.60;99.90;;;;;;5017114;28;20033;-86
2021/06/26 03:55:19;;;;;;;50.20;35.83;;;16.50;99.90;;;;;;5015184;28;20038;-86
2021/06/26 03:57:46;;;;;;;49.10;35.75;;;16.50;99.90;;;;;;5016478;28;20038;-86
2021/06/26 04:00:13;;;;;;;50.95;36.90;;;16.60;99.90;;;;;;5017504;28;20041;-86
2021/06/26 04:02:41;;;;;;;51.97;37.28;;;16.60;99.90;;;;;;5016944;28;20048;-85
2021/06/26 04:05:08;;;;;;;47.95;33.95;;;16.70;99.90;;;;;;5032644;28;20128;-86
2021/06/26 04:07:36;;;;;;;50.78;35.90;;;16.70;99.90;;;;;;5017228;28;20062;-86
2021/06/26 04:10:04;;;;;;;53.72;37.28;;;16.70;99.90;;;;;;5016155;28;20117;-86
2021/06/26 04:12:31;;;;;;;49.90;35.83;;;16.70;99.90;;;;;;5016909;28;20520;-86
2021/06/26 04:14:58;;;;;;;51.55;36.90;;;16.70;99.90;;;;;;5016652;28;20065;-86
2021/06/26 04:17:25;;;;;;;51.38;36.95;;;16.70;99.90;;;;;;5017045;28;20117;-86
2021/06/26 04:19:52;;;;;;;46.70;32.97;;;16.70;99.90;;;;;;5016657;28;20061;-86
2021/06/26 04:22:18;;;;;;;46.45;34.92;;;16.80;99.90;;;;;;5017061;28;20470;-86
2021/06/26 04:24:45;;;;;;;49.08;36.28;;;16.80;99.90;;;;;;5033061;28;20072;-86
2021/06/26 04:27:12;;;;;;;48.85;34.33;;;16.90;99.90;;;;;;5017032;28;20116;-86
2021/06/26 04:29:39;;;;;;;48.85;34.75;;;16.90;99.90;;;;;;5016502;28;20133;-86
2021/06/26 04:32:06;;;;;;;44.20;32.30;;;16.90;99.90;;;;;;5015988;28;20113;-86
2021/06/26 04:34:33;;;;;;;49.53;35.83;;;17.00;99.90;;;;;;5016535;28;20038;-86
2021/06/26 04:37:01;;;;;;;44.08;32.35;;;17.00;99.90;;;;;;5016198;28;20096;-86
2021/06/26 04:39:27;;;;;;;49.13;35.75;;;17.00;99.90;;;;;;5016663;28;20033;-87
2021/06/26 04:41:54;;;;;;;47.40;35.03;;;17.00;99.90;;;;;;5015996;28;20457;-86
2021/06/26 04:44:21;;;;;;;51.50;37.35;;;17.10;99.90;;;;;;5016295;28;20042;-86
2021/06/26 04:46:47;;;;;;;48.00;35.13;;;17.10;99.90;;;;;;5016119;28;20478;-87
2021/06/26 04:49:14;;;;;;;47.90;35.17;;;17.10;99.90;;;;;;5016151;28;20038;-86
2021/06/26 04:51:41;;;;;;;49.13;35.85;;;17.10;99.90;;;;;;5015621;28;20125;-87
2021/06/26 04:54:08;;;;;;;46.10;34.25;;;17.20;99.90;;;;;;5015599;28;20046;-87
2021/06/26 04:56:35;;;;;;;49.65;35.67;;;17.10;99.90;;;;;;5016127;28;20038;-87
2021/06/26 04:59:02;;;;;;;52.05;36.42;;;17.20;99.90;;;;;;4999569;28;20041;-87
2021/06/26 05:01:28;;;;;;;48.65;36.80;;;17.20;99.90;;;;;;5016201;28;20083;-87
2021/06/26 05:03:55;;;;;;;51.00;35.72;;;17.20;99.90;;;;;;4999820;28;20030;-87
2021/06/26 05:06:22;;;;;;;50.25;36.65;;;17.30;99.90;;;;;;4999921;28;20056;-86
2021/06/26 05:08:49;;;;;;;54.03;38.30;;;17.30;99.90;;;;;;5015543;28;20034;-86
2021/06/26 05:11:16;;;;;;;52.58;38.67;;;17.40;99.90;;;;;;5015519;28;20371;-86
2021/06/26 05:13:42;;;;;;;52.08;36.70;;;17.30;99.90;;;;;;5015482;28;20383;-86
2021/06/26 05:16:10;;;;;;;52.88;36.10;;;17.30;99.90;;;;;;5031411;28;20045;-87
2021/06/26 05:18:37;;;;;;;50.00;36.50;;;17.30;99.90;;;;;;5014970;28;20057;-86
2021/06/26 05:21:05;;;;;;;52.85;36.55;;;17.30;99.90;;;;;;5031405;28;20034;-86
2021/06/26 05:23:32;;;;;;;48.17;35.22;;;17.30;99.90;;;;;;5032005;28;20160;-86
2021/06/26 05:25:59;;;;;;;53.28;37.78;;;17.40;99.90;;;;;;5015054;28;20128;-86
2021/06/26 05:28:26;;;;;;;52.05;36.20;;;17.40;99.90;;;;;;5015364;28;20037;-86
2021/06/26 05:30:53;;;;;;;52.13;38.40;;;17.40;99.90;;;;;;5014953;28;20092;-86
2021/06/26 05:33:20;;;;;;;49.83;35.55;;;17.40;99.90;;;;;;5015124;28;20475;-86
2021/06/26 05:35:49;;;;;;;49.05;35.90;;;17.50;99.90;;;;;;5014968;28;20054;-86
2021/06/26 05:38:16;;;;;;;47.08;35.83;;;17.50;99.90;;;;;;5015606;28;20485;-86
2021/06/26 05:40:43;;;;;;;54.22;36.83;;;17.60;99.90;;;;;;5031580;28;20038;-87
2021/06/26 05:43:10;;;;;;;47.92;37.70;;;17.60;99.90;;;;;;5014750;28;20450;-87
2021/06/26 05:45:37;;;;;;;47.30;34.17;;;17.60;99.90;;;;;;5015474;28;20065;-87
2021/06/26 05:48:04;;;;;;;46.40;35.30;;;17.70;99.90;;;;;;5014675;28;20056;-87
2021/06/26 05:50:31;;;;;;;48.95;38.08;;;17.70;99.90;;;;;;5031080;28;20137;-86
2021/06/26 05:52:58;;;;;;;46.92;36.13;;;17.80;99.90;;;;;;5014156;28;20069;-86
2021/06/26 05:55:26;;;;;;;48.25;36.35;;;17.80;99.90;;;;;;5031248;28;20057;-86
2021/06/26 05:57:54;;;;;;;50.67;36.25;;;17.90;99.90;;;;;;5014303;28;20030;-86
2021/06/26 06:00:22;;;;;;;47.58;35.35;;;17.90;99.90;;;;;;5014941;28;20108;-86
2021/06/26 06:02:50;;;;;;;47.60;35.10;;;17.90;99.90;;;;;;5014832;28;20517;-86
2021/06/26 06:05:17;;;;;;;50.38;36.95;;;18.00;99.90;;;;;;5030610;28;20091;-86
2021/06/26 06:07:45;;;;;;;45.38;35.55;;;18.10;99.90;;;;;;5015023;28;20033;-86
2021/06/26 06:10:14;;;;;;;46.72;35.55;;;18.10;99.90;;;;;;5030572;28;20037;-86
2021/06/26 06:12:42;;;;;;;47.22;35.78;;;18.10;99.90;;;;;;5031385;28;20042;-86
2021/06/26 06:15:11;;;;;;;51.08;37.65;;;18.20;99.90;;;;;;5030256;28;20041;-86
2021/06/26 06:17:39;;;;;;;47.63;35.85;;;18.30;99.90;;;;;;5033158;28;20040;-86
2021/06/26 06:20:07;;;;;;;46.75;36.10;;;18.30;99.90;;;;;;5048347;28;20026;-86
2021/06/26 06:22:34;;;;;;;46.67;35.50;;;18.40;99.90;;;;;;5068378;28;20068;-86
2021/06/26 06:25:05;;;;;;;51.35;37.10;;;18.40;99.90;;;;;;5033518;28;20121;-86
2021/06/26 06:27:35;;;;;;;50.20;36.20;;;18.40;99.90;;;;;;5050526;28;20034;-86
2021/06/26 06:30:03;;;;;;;50.42;36.33;;;18.50;99.90;;;;;;5033575;28;20461;-86
2021/06/26 06:32:31;;;;;;;47.00;35.95;;;18.50;99.90;;;;;;5009995;28;20042;-86
2021/06/26 06:34:58;;;;;;;43.78;33.92;;;18.60;99.90;;;;;;4994481;28;20425;-86
2021/06/26 06:37:25;;;;;;;45.70;35.17;;;18.60;99.90;;;;;;4995073;28;20034;-86
2021/06/26 06:39:51;;;;;;;43.42;33.63;;;18.60;99.90;;;;;;4994504;28;20379;-86
2021/06/26 06:42:18;;;;;;;54.83;32.97;;;18.60;99.90;;;;;;5013424;28;20124;-86
2021/06/26 06:44:45;;;;;;;45.10;34.25;;;18.60;99.90;;;;;;5014459;28;20038;-87
2021/06/26 06:47:12;;;;;;;44.25;32.58;;;18.70;99.90;;;;;;5030134;28;20045;-86
2021/06/26 06:49:39;;;;;;;41.47;32.67;;;18.70;99.90;;;;;;5015003;28;20037;-87
2021/06/26 06:52:06;;;;;;;44.50;32.88;;;18.80;99.90;;;;;;5014060;28;20124;-85
2021/06/26 06:54:34;;;;;;;40.88;32.25;;;18.80;99.90;;;;;;5013709;28;20379;-83
2021/06/26 06:57:00;;;;;;;42.97;32.47;;;18.80;99.90;;;;;;5013148;28;20038;-82
2021/06/26 06:59:27;;;;;;;44.70;31.42;;;18.90;99.90;;;;;;5013983;28;20045;-83
2021/06/26 07:01:54;;;;;;;42.25;31.58;;;18.90;99.90;;;;;;5030859;28;20045;-87
2021/06/26 07:04:21;;;;;;;40.95;32.05;;;18.90;99.90;;;;;;4997798;28;20058;-86
2021/06/26 07:06:47;;;;;;;41.08;29.88;;;18.90;99.90;;;;;;5014429;28;20044;-86
2021/06/26 07:09:14;;;;;;;39.63;30.85;;;19.00;99.90;;;;;;5013759;28;20034;-86
2021/06/26 07:11:41;;;;;;;45.65;31.48;;;19.00;99.90;;;;;;4998542;28;20053;-86
2021/06/26 07:14:08;;;;;;;37.58;29.85;;;19.10;99.90;;;;;;5013610;28;20041;-86
2021/06/26 07:16:35;;;;;;;42.67;30.88;;;19.10;99.90;;;;;;5014118;28;20042;-87
2021/06/26 07:19:02;;;;;;;38.63;29.63;;;19.10;99.90;;;;;;5030554;28;20077;-86
2021/06/26 07:21:29;;;;;;;42.83;29.77;;;19.10;99.90;;;;;;5031415;28;20052;-89
2021/06/26 07:23:56;;;;;;;37.38;29.63;;;19.20;99.90;;;;;;5015790;28;20169;-86
2021/06/26 07:26:22;;;;;;;36.58;29.48;;;19.30;99.90;;;;;;5015856;28;20042;-85
2021/06/26 07:28:49;;;;;;;39.15;29.45;;;19.40;99.90;;;;;;5014001;28;20421;-85
2021/06/26 07:31:16;;;;;;;34.25;26.45;;;19.40;99.90;;;;;;5030188;28;20084;-85
2021/06/26 07:33:43;;;;;;;33.60;26.27;;;19.50;99.90;;;;;;5036841;28;20041;-86
2021/06/26 07:36:10;;;;;;;32.80;25.08;;;19.60;99.90;;;;;;5048849;28;20092;-84
2021/06/26 07:38:37;;;;;;;33.25;23.77;;;19.70;99.90;;;;;;5034580;28;20041;-84
2021/06/26 07:41:04;;;;;;;31.88;23.73;;;19.90;99.90;;;;;;5051356;28;20536;-85
2021/06/26 07:43:31;;;;;;;32.33;23.90;;;19.90;99.90;;;;;;5037231;28;20049;-84
2021/06/26 07:45:57;;;;;;;33.58;22.95;;;20.00;99.90;;;;;;5037151;28;20057;-84
2021/06/26 07:48:24;;;;;;;28.30;22.55;;;20.10;99.90;;;;;;5036546;28;20427;-84
2021/06/26 07:50:51;;;;;;;32.78;24.77;;;20.10;99.90;;;;;;5009339;28;20058;-84
2021/06/26 07:53:18;;;;;;;29.65;22.83;;;20.20;99.90;;;;;;5021534;28;20038;-84
2021/06/26 07:55:55;;;;;;;29.25;23.83;;;20.20;99.90;;;;;;5013560;28;20034;-85
2021/06/26 07:58:23;;;;;;;29.67;23.33;;;20.20;99.90;;;;;;5014280;28;20042;-86
2021/06/26 08:00:52;;;;;;;30.92;20.85;;;20.30;99.90;;;;;;5029998;28;20030;-84
2021/06/26 08:03:19;;;;;;;25.05;19.98;;;20.40;99.90;;;;;;5048382;28;20168;-77
2021/06/26 08:05:47;;;;;;;25.13;20.90;;;20.50;99.90;;;;;;5031633;28;20040;-77
2021/06/26 08:08:14;;;;;;;25.88;20.67;;;20.60;99.90;;;;;;5049372;28;20068;-80
2021/06/26 08:10:41;;;;;;;26.40;20.08;;;20.70;99.90;;;;;;5035599;28;20048;-81
2021/06/26 08:13:09;;;;;;;25.83;20.77;;;20.80;99.90;;;;;;5052452;28;20045;-83
2021/06/26 08:15:36;;;;;;;30.40;21.65;;;20.90;99.90;;;;;;5036128;28;20059;-84
2021/06/26 08:18:04;;;;;;;26.00;19.30;;;21.00;99.90;;;;;;5036672;28;20045;-79
2021/06/26 08:20:38;;;;;;;23.85;18.05;;;21.20;99.90;;;;;;5036469;28;20049;-89
2021/06/26 08:23:06;;;;;;;25.08;19.48;;;21.30;99.90;;;;;;5026331;28;20041;-83
2021/06/26 08:25:33;;;;;;;23.77;18.50;;;21.30;99.90;;;;;;5033318;28;20030;-84
2021/06/26 08:28:00;;;;;;;21.48;15.98;;;21.50;99.90;;;;;;5016355;28;20041;-80
2021/06/26 08:30:27;;;;;;;20.00;15.68;;;21.40;99.90;;;;;;5034309;28;20037;-82
2021/06/26 08:32:56;;;;;;;20.42;15.43;;;21.50;99.90;;;;;;5032888;28;20034;-81
2021/06/26 08:35:23;;;;;;;19.70;15.48;;;21.60;99.90;;;;;;5031897;28;20054;-84
2021/06/26 08:37:51;;;;;;;19.45;15.05;;;21.50;99.90;;;;;;5032153;28;20034;-77
2021/06/26 08:40:19;;;;;;;22.27;16.48;;;21.70;99.90;;;;;;5014773;28;20045;-75
2021/06/26 08:42:46;;;;;;;19.85;16.55;;;22.00;99.90;;;;;;5051759;28;20381;-75
2021/06/26 08:45:17;;;;;;;18.00;14.32;;;22.30;99.90;;;;;;5060551;28;20068;-76
2021/06/26 08:47:49;;;;;;;21.63;13.85;;;22.30;99.90;;;;;;5048752;28;20038;-78
2021/06/26 08:50:31;;;;;;;15.77;12.93;;;22.40;99.90;;;;;;5061981;28;20478;-89
2021/06/26 08:52:58;;;;;;;17.45;14.15;;;22.10;99.90;;;;;;5035695;28;20045;-82
2021/06/26 08:55:26;;;;;;;19.75;14.73;;;22.20;99.90;;;;;;5035446;28;20033;-83
2021/06/26 08:57:53;;;;;;;20.40;15.30;;;22.00;99.90;;;;;;5046048;28;20049;-82
2021/06/26 09:00:23;;;;;;;22.50;16.55;;;22.00;99.90;;;;;;5039588;28;20042;-80
2021/06/26 09:02:51;;;;;;;19.70;15.85;;;21.90;99.90;;;;;;5047962;28;20037;-78
2021/06/26 09:05:28;;;;;;;17.98;15.07;;;21.80;99.90;;;;;;5069038;28;20057;-79
2021/06/26 09:08:07;;;;;;;20.13;15.15;;;21.60;99.90;;;;;;5040797;28;20034;-76
2021/06/26 09:10:35;;;;;;;20.73;14.43;;;21.70;99.90;;;;;;5048049;28;20037;-78
2021/06/26 09:13:12;;;;;;;22.75;15.07;;;21.80;99.90;;;;;;5031399;28;20117;-78
2021/06/26 09:15:39;;;;;;;16.67;13.82;;;22.00;99.90;;;;;;5042539;28;20058;-80
2021/06/26 09:18:12;;;;;;;18.77;13.23;;;22.20;99.90;;;;;;5032638;28;20072;-91
2021/06/26 09:20:41;;;;;;;17.50;13.38;;;22.40;99.90;;;;;;5017216;28;20049;-91
2021/06/26 09:23:22;;;;;;;13.52;11.48;;;22.80;99.90;;;;;;5035832;28;20051;-92
2021/06/26 09:25:49;;;;;;;11.45;9.73;;;23.10;99.90;;;;;;5019232;28;20056;-88
2021/06/26 09:28:24;;;;;;;13.15;10.82;;;23.40;99.90;;;;;;5004227;28;20054;-91
2021/06/26 09:30:53;;;;;;;13.98;8.98;;;23.60;99.90;;;;;;5033159;28;20068;-94
2021/06/26 09:33:24;;;;;;;13.60;10.27;;;23.40;99.90;;;;;;5032046;28;20038;-91
2021/06/26 09:36:00;;;;;;;13.13;10.27;;;23.30;99.90;;;;;;5032258;28;20140;-92
2021/06/26 09:38:27;;;;;;;17.00;13.15;;;23.30;99.90;;;;;;5028850;28;20061;-91
2021/06/26 09:40:55;;;;;;;18.98;13.60;;;23.40;99.90;;;;;;5029318;28;20042;-91
2021/06/26 09:43:30;;;;;;;18.63;14.13;;;23.20;99.90;;;;;;5032303;28;20503;-91
2021/06/26 09:46:08;;;;;;;14.90;12.25;;;23.20;99.90;;;;;;5038747;28;20030;-91
2021/06/26 09:49:01;;;;;;;19.67;13.48;;;23.30;99.90;;;;;;5044714;28;20038;-92
2021/06/26 09:51:32;;;;;;;15.98;12.82;;;23.30;99.90;;;;;;5012033;28;20034;-91
2021/06/26 09:54:08;;;;;;;16.45;12.57;;;23.30;99.90;;;;;;5013877;28;20038;-91
2021/06/26 09:56:46;;;;;;;14.85;12.15;;;23.40;99.90;;;;;;5043933;28;20050;-91
2021/06/26 09:59:17;;;;;;;17.73;12.57;;;23.30;99.90;;;;;;5027824;28;20036;-90
2021/06/26 10:01:46;;;;;;;11.57;10.18;;;23.10;99.90;;;;;;5048737;28;20037;-93
2021/06/26 10:04:14;;;;;;;15.18;10.85;;;23.10;99.90;;;;;;5031513;28;20045;-80
2021/06/26 10:06:43;;;;;;;14.98;11.75;;;23.10;99.90;;;;;;5030660;28;20042;-78
2021/06/26 10:09:14;;;;;;;14.35;12.07;;;23.00;99.90;;;;;;5048303;28;20076;-79
2021/06/26 10:11:41;;;;;;;17.17;13.07;;;23.00;99.90;;;;;;5030565;28;20069;-78
2021/06/26 10:14:10;;;;;;;15.50;12.35;;;23.00;99.90;;;;;;5047700;28;20042;-76
2021/06/26 10:16:39;;;;;;;12.77;11.20;;;22.90;99.90;;;;;;5029271;28;20099;-78
2021/06/26 10:19:09;;;;;;;14.32;11.82;;;23.00;99.90;;;;;;5032912;28;20117;-76
2021/06/26 10:21:37;;;;;;;15.20;11.52;;;23.00;99.90;;;;;;5049569;28;20371;-78
2021/06/26 10:24:15;;;;;;;19.83;14.68;;;23.00;99.90;;;;;;5049835;28;20037;-78
2021/06/26 10:26:43;;;;;;;15.25;11.32;;;23.00;99.90;;;;;;5051145;28;20091;-76
2021/06/26 10:29:13;;;;;;;12.93;10.40;;;23.00;99.90;;;;;;5067221;28;20432;-76
2021/06/26 10:31:45;;;;;;;15.48;11.27;;;23.00;99.90;;;;;;5066450;28;20132;-76
2021/06/26 10:34:40;;;;;;;12.10;10.48;;;23.00;99.90;;;;;;5052714;28;20437;-75
2021/06/26 10:37:20;;;;;;;11.60;9.88;;;23.10;99.90;;;;;;5041650;28;20049;-75
2021/06/26 10:40:00;;;;;;;15.35;11.23;;;23.10;99.90;;;;;;5045409;28;20057;-74
2021/06/26 10:42:35;;;;;;;14.95;10.90;;;23.10;99.90;;;;;;5044511;28;20038;-74
2021/06/26 10:45:23;;;;;;;12.20;9.85;;;23.10;99.90;;;;;;5029274;28;20058;-76
2021/06/26 10:47:50;;;;;;;12.00;9.50;;;23.20;99.90;;;;;;5010386;28;20039;-76
2021/06/26 10:50:22;;;;;;;12.00;9.95;;;23.10;99.90;;;;;;5018458;28;20038;-79
2021/06/26 10:52:54;;;;;;;15.50;10.75;;;23.10;99.90;;;;;;5062471;28;20044;-77
2021/06/26 10:55:38;;;;;;;13.65;10.27;;;23.10;99.90;;;;;;5046721;28;20120;-75
2021/06/26 10:58:06;;;;;;;11.88;9.20;;;23.20;99.90;;;;;;5045638;28;20084;-78
2021/06/26 11:00:36;;;;;;;11.65;8.90;;;23.20;99.90;;;;;;5028792;28;20038;-74
2021/06/26 11:03:04;;;;;;;13.70;11.05;;;23.20;99.90;;;;;;5028648;28;20470;-74
2021/06/26 11:05:34;;;;;;;13.23;10.98;;;23.20;99.90;;;;;;5046737;28;20056;-76
2021/06/26 11:08:12;;;;;;;15.27;9.82;;;23.10;99.90;;;;;;5029407;28;20463;-76
2021/06/26 11:10:50;;;;;;;11.77;9.43;;;23.10;99.90;;;;;;5029733;28;20088;-78
2021/06/26 11:13:19;;;;;;;11.75;9.48;;;23.10;99.90;;;;;;5029905;28;20046;-78
2021/06/26 11:15:46;;;;;;;11.88;9.00;;;23.00;99.90;;;;;;5015523;28;20034;-79
2021/06/26 11:18:17;;;;;;;14.20;9.85;;;23.00;99.90;;;;;;5024014;28;20048;-73
2021/06/26 11:20:45;;;;;;;12.73;9.30;;;23.10;99.90;;;;;;5052404;28;20042;-76
2021/06/26 11:23:16;;;;;;;12.05;8.90;;;23.00;99.90;;;;;;5070456;28;20097;-72
2021/06/26 11:25:44;;;;;;;13.65;9.90;;;23.00;99.90;;;;;;5052678;28;20112;-73
2021/06/26 11:28:17;;;;;;;9.82;8.02;;;22.90;99.90;;;;;;5053035;28;20041;-76
2021/06/26 11:31:02;;;;;;;11.68;8.82;;;22.80;99.90;;;;;;5055336;28;20034;-88
2021/06/26 11:33:31;;;;;;;11.15;8.40;;;22.70;99.90;;;;;;5034830;28;20064;-89
2021/06/26 11:35:59;;;;;;;12.23;8.30;;;22.60;99.90;;;;;;5034785;28;20089;-89
2021/06/26 11:38:26;;;;;;;11.68;9.52;;;22.60;99.90;;;;;;5034044;28;20042;-88
2021/06/26 11:41:08;;;;;;;11.48;9.43;;;22.60;99.90;;;;;;5018505;28;20038;-86
2021/06/26 11:43:36;;;;;;;16.42;12.48;;;22.60;99.90;;;;;;5033935;28;20065;-86
2021/06/26 11:46:05;;;;;;;21.00;15.63;;;22.60;99.90;;;;;;5034709;28;20096;-86
2021/06/26 11:48:32;;;;;;;20.35;16.88;;;22.60;99.90;;;;;;5018599;28;20038;-88
2021/06/26 11:51:05;;;;;;;18.98;15.25;;;22.60;99.90;;;;;;5018331;28;20034;-87
2021/06/26 11:53:37;;;;;;;21.17;16.42;;;22.60;99.90;;;;;;5051017;28;20434;-87
2021/06/26 11:56:04;;;;;;;20.13;15.77;;;22.70;99.90;;;;;;5054147;28;20049;-87
2021/06/26 11:58:45;;;;;;;20.40;16.58;;;22.80;99.90;;;;;;5036882;28;20444;-86
2021/06/26 12:01:15;;;;;;;20.05;16.75;;;22.90;99.90;;;;;;5030258;28;20501;-85
2021/06/26 12:03:42;;;;;;;26.75;17.13;;;22.80;99.90;;;;;;5024131;28;20045;-86
2021/06/26 12:06:14;;;;;;;20.67;16.40;;;23.00;99.90;;;;;;5017403;28;20459;-85
2021/06/26 12:08:53;;;;;;;19.05;14.77;;;23.00;99.90;;;;;;5047788;28;20041;-86
2021/06/26 12:11:25;;;;;;;17.67;13.25;;;23.10;99.90;;;;;;5046739;28;20056;-85
2021/06/26 12:13:54;;;;;;;15.90;12.75;;;23.30;99.90;;;;;;5054480;28;20050;-87
2021/06/26 12:16:24;;;;;;;19.27;14.18;;;23.50;99.90;;;;;;5043410;28;20050;-87
2021/06/26 12:18:59;;;;;;;16.67;13.20;;;23.70;99.90;;;;;;5032323;28;20040;-86
2021/06/26 12:21:43;;;;;;;16.35;13.02;;;24.00;99.90;;;;;;5033377;28;20042;-87
2021/06/26 12:24:11;;;;;;;15.50;12.80;;;24.20;99.90;;;;;;5050579;28;20113;-86
2021/06/26 12:26:38;;;;;;;16.42;12.27;;;24.20;99.90;;;;;;5016012;28;20038;-86
2021/06/26 12:29:04;;;;;;;13.25;10.73;;;24.20;99.90;;;;;;5017157;28;20037;-87
2021/06/26 12:31:42;;;;;;;16.08;10.65;;;24.40;99.90;;;;;;5019493;28;20037;-87
2021/06/26 12:34:09;;;;;;;15.02;10.77;;;24.40;99.90;;;;;;5051767;28;20048;-85
2021/06/26 12:36:36;;;;;;;14.23;11.55;;;24.40;99.90;;;;;;5032673;28;20105;-86